Time;durP1;ratioP1;P1;durP2;ratioP2;P2;SDS_P1;SDS_P2;PMS_P1;PMS_P2;Temp;Humidity;BMP_temperature;BMP_pressure;BME280_temperature;BME280_humidity;BME280_pressure;Samples;Min_cycle;Max_cycle;Signal;HPM_P1;HPM_P2
2023/07/13 00:01:57;;;;;;;;;;;;;;;;;;7366879;19;19926;-69
2023/07/13 00:04:24;;;;;;;;;;;;;;;;;;7368331;19;19922;-69
2023/07/13 00:06:50;;;;;;;;;;;;;;;;;;7367361;19;19915;-69
2023/07/13 00:09:16;;;;;;;;;;;;;;;;;;7389408;19;19923;-69
2023/07/13 00:11:41;;;;;;;;;;;;;;;;;;7366144;19;19938;-69
2023/07/13 00:14:07;;;;;;;;;;;;;;;;;;7367641;19;19991;-69
2023/07/13 00:16:34;;;;;;;;;;;;;;;;;;7367672;19;19948;-68
2023/07/13 00:19:00;;;;;;;;;;;;;;;;;;7368251;19;19915;-69
2023/07/13 00:21:25;;;;;;;;;;;;;;;;;;7388496;19;20285;-69
2023/07/13 00:23:50;;;;;;;;;;;;;;;;;;7366103;19;19939;-69
2023/07/13 00:26:17;;;;;;;;;;;;;;;;;;7366707;19;20374;-69
2023/07/13 00:28:42;;;;;;;;;;;;;;;;;;7366907;19;19922;-70
2023/07/13 00:31:08;;;;;;;;;;;;;;;;;;7367094;19;19927;-68
2023/07/13 00:33:34;;;;;;;;;;;;;;;;;;7389709;19;19930;-70
2023/07/13 00:35:59;;;;;;;;;;;;;;;;;;7367759;19;19915;-68
2023/07/13 00:38:24;;;;;;;;;;;;;;;;;;7366076;19;19911;-68
2023/07/13 00:40:50;;;;;;;;;;;;;;;;;;7367237;19;20002;-69
2023/07/13 00:43:19;;;;;;;;;;;;;;;;;;7366900;19;19934;-69
2023/07/13 00:45:45;;;;;;;;;;;;;;;;;;7385787;19;20030;-69
2023/07/13 00:48:16;;;;;;;;;;;;;;;;;;7372926;19;19931;-69
2023/07/13 00:50:41;;;;;;;;;;;;;;;;;;7367839;19;19931;-69
2023/07/13 00:53:07;;;;;;;;;;;;;;;;;;7367986;19;19932;-69
2023/07/13 00:55:33;;;;;;;;;;;;;;;;;;7367656;19;19947;-68
2023/07/13 00:57:58;;;;;;;;;;;;;;;;;;7367624;19;19914;-68
2023/07/13 01:00:25;;;;;;;;;;;;;;;;;;7389182;19;19918;-69
2023/07/13 01:02:51;;;;;;;;;;;;;;;;;;7371774;19;19922;-69
2023/07/13 01:05:17;;;;;;;;;;;;;;;;;;7369263;19;19926;-69
2023/07/13 01:07:43;;;;;;;;;;;;;;;;;;7366255;19;19923;-69
2023/07/13 01:10:09;;;;;;;;;;;;;;;;;;7366200;19;19939;-70
2023/07/13 01:12:34;;;;;;;;;;;;;;;;;;7389812;19;19918;-69
2023/07/13 01:15:01;;;;;;;;;;;;;;;;;;7366589;19;19919;-68
2023/07/13 01:17:27;;;;;;;;;;;;;;;;;;7366114;19;19935;-68
2023/07/13 01:19:52;;;;;;;;;;;;;;;;;;7367419;19;20493;-69
2023/07/13 01:22:18;;;;;;;;;;;;;;;;;;7366023;19;19930;-69
2023/07/13 01:24:45;;;;;;;;;;;;;;;;;;7389065;19;20475;-69
2023/07/13 01:27:11;;;;;;;;;;;;;;;;;;7366070;19;19926;-69
2023/07/13 01:29:41;;;;;;;;;;;;;;;;;;7366322;19;19978;-70
2023/07/13 01:32:08;;;;;;;;;;;;;;;;;;7365751;19;20319;-69
2023/07/13 01:34:33;;;;;;;;;;;;;;;;;;7366891;19;19919;-69
2023/07/13 01:36:58;;;;;;;;;;;;;;;;;;7366378;19;19944;-70
2023/07/13 01:39:23;;;;;;;;;;;;;;;;;;7387750;19;19919;-69
2023/07/13 01:41:49;;;;;;;;;;;;;;;;;;7363057;19;19929;-69
2023/07/13 01:44:14;;;;;;;;;;;;;;;;;;7365506;19;20313;-69
2023/07/13 01:46:39;;;;;;;;;;;;;;;;;;7364677;19;19927;-69
2023/07/13 01:49:04;;;;;;;;;;;;;;;;;;7367788;19;19932;-69
2023/07/13 01:51:30;;;;;;;;;;;;;;;;;;7386961;19;19933;-69
2023/07/13 01:53:55;;;;;;;;;;;;;;;;;;7367209;19;19945;-69
2023/07/13 01:56:20;;;;;;;;;;;;;;;;;;7369726;19;19926;-69
2023/07/13 01:58:46;;;;;;;;;;;;;;;;;;7368097;19;19923;-69
2023/07/13 02:01:11;;;;;;;;;;;;;;;;;;7367643;19;20513;-69
2023/07/13 02:03:36;;;;;;;;;;;;;;;;;;7385386;19;19914;-70
2023/07/13 02:06:01;;;;;;;;;;;;;;;;;;7365511;19;19955;-69
2023/07/13 02:08:27;;;;;;;;;;;;;;;;;;7363411;19;19918;-69
2023/07/13 02:10:52;;;;;;;;;;;;;;;;;;7361838;19;19982;-69
2023/07/13 02:13:17;;;;;;;;;;;;;;;;;;7364583;19;19925;-69
2023/07/13 02:15:42;;;;;;;;;;;;;;;;;;7385000;19;19943;-69
2023/07/13 02:18:08;;;;;;;;;;;;;;;;;;7362288;19;19918;-69
2023/07/13 02:20:33;;;;;;;;;;;;;;;;;;7363891;19;20747;-69
2023/07/13 02:22:58;;;;;;;;;;;;;;;;;;7369442;19;20366;-70
2023/07/13 02:25:25;;;;;;;;;;;;;;;;;;7367699;19;19923;-69
2023/07/13 02:27:50;;;;;;;;;;;;;;;;;;7372030;19;19907;-69
2023/07/13 02:30:15;;;;;;;;;;;;;;;;;;7397275;19;19915;-69
2023/07/13 02:32:40;;;;;;;;;;;;;;;;;;7374167;19;20289;-69
2023/07/13 02:35:06;;;;;;;;;;;;;;;;;;7362717;19;19923;-69
2023/07/13 02:37:31;;;;;;;;;;;;;;;;;;7362875;19;19940;-69
2023/07/13 02:39:56;;;;;;;;;;;;;;;;;;7362301;19;20354;-70
2023/07/13 02:42:21;;;;;;;;;;;;;;;;;;7382715;19;19911;-70
2023/07/13 02:44:47;;;;;;;;;;;;;;;;;;7362434;19;20593;-70
2023/07/13 02:47:13;;;;;;;;;;;;;;;;;;7363023;19;19930;-70
2023/07/13 02:49:38;;;;;;;;;;;;;;;;;;7363963;19;19935;-70
2023/07/13 02:52:04;;;;;;;;;;;;;;;;;;7362572;19;19948;-70
2023/07/13 02:54:29;;;;;;;;;;;;;;;;;;7384710;19;19947;-69
2023/07/13 02:56:54;;;;;;;;;;;;;;;;;;7362279;19;19922;-70
2023/07/13 02:59:19;;;;;;;;;;;;;;;;;;7370413;19;19994;-69
2023/07/13 03:01:44;;;;;;;;;;;;;;;;;;7370664;19;19928;-70
2023/07/13 03:04:10;;;;;;;;;;;;;;;;;;7370810;19;19933;-69
2023/07/13 03:06:35;;;;;;;;;;;;;;;;;;7393435;19;20412;-70
2023/07/13 03:09:00;;;;;;;;;;;;;;;;;;7369491;19;20302;-70
2023/07/13 03:11:26;;;;;;;;;;;;;;;;;;7368636;19;19919;-70
2023/07/13 03:13:51;;;;;;;;;;;;;;;;;;7369354;19;19975;-70
2023/07/13 03:16:17;;;;;;;;;;;;;;;;;;7371350;19;19935;-70
2023/07/13 03:18:42;;;;;;;;;;;;;;;;;;7389418;19;20371;-70
2023/07/13 03:21:07;;;;;;;;;;;;;;;;;;7368035;19;19914;-70
2023/07/13 03:23:32;;;;;;;;;;;;;;;;;;7370253;19;19946;-70
2023/07/13 03:26:08;;;;;;;;;;;;;;;;;;7369398;19;19919;-70
2023/07/13 03:28:34;;;;;;;;;;;;;;;;;;7366840;19;19915;-70
2023/07/13 03:31:00;;;;;;;;;;;;;;;;;;7370209;19;19938;-69
2023/07/13 03:33:25;;;;;;;;;;;;;;;;;;7390257;19;19957;-69
2023/07/13 03:35:50;;;;;;;;;;;;;;;;;;7368035;19;19923;-70
2023/07/13 03:38:15;;;;;;;;;;;;;;;;;;7370636;19;19919;-70
2023/07/13 03:40:41;;;;;;;;;;;;;;;;;;7363871;19;19956;-70
2023/07/13 03:43:06;;;;;;;;;;;;;;;;;;7370363;19;19929;-70
2023/07/13 03:45:31;;;;;;;;;;;;;;;;;;7389930;19;20034;-70
2023/07/13 03:47:57;;;;;;;;;;;;;;;;;;7367088;19;20109;-70
2023/07/13 03:50:22;;;;;;;;;;;;;;;;;;7367856;19;19927;-70
2023/07/13 03:52:47;;;;;;;;;;;;;;;;;;7370579;19;19938;-70
2023/07/13 03:55:12;;;;;;;;;;;;;;;;;;7365730;19;19926;-70
2023/07/13 03:57:37;;;;;;;;;;;;;;;;;;7390045;19;19974;-70
2023/07/13 04:00:03;;;;;;;;;;;;;;;;;;7367972;19;20235;-70
2023/07/13 04:02:28;;;;;;;;;;;;;;;;;;7365447;19;20380;-69
2023/07/13 04:04:54;;;;;;;;;;;;;;;;;;7367937;19;19918;-70
2023/07/13 04:07:19;;;;;;;;;;;;;;;;;;7367721;19;19922;-70
2023/07/13 04:09:44;;;;;;;;;;;;;;;;;;7386012;19;19929;-70
2023/07/13 04:12:09;;;;;;;;;;;;;;;;;;7364045;19;20410;-69
2023/07/13 04:14:35;;;;;;;;;;;;;;;;;;7368936;19;19915;-70
2023/07/13 04:17:00;;;;;;;;;;;;;;;;;;7368244;19;19930;-70
2023/07/13 04:19:25;;;;;;;;;;;;;;;;;;7368734;19;19919;-69
2023/07/13 04:21:50;;;;;;;;;;;;;;;;;;7365058;19;20345;-69
2023/07/13 04:24:15;;;;;;;;;;;;;;;;;;7389005;19;19914;-70
2023/07/13 04:26:41;;;;;;;;;;;;;;;;;;7366316;19;19921;-69
2023/07/13 04:29:06;;;;;;;;;;;;;;;;;;7368467;19;19917;-70
2023/07/13 04:31:32;;;;;;;;;;;;;;;;;;7366921;19;19948;-69
2023/07/13 04:33:57;;;;;;;;;;;;;;;;;;7367970;19;20001;-69
2023/07/13 04:36:22;;;;;;;;;;;;;;;;;;7387720;19;19919;-61
2023/07/13 04:38:48;;;;;;;;;;;;;;;;;;7368172;19;19923;-62
2023/07/13 04:41:14;;;;;;;;;;;;;;;;;;7365712;19;19923;-62
2023/07/13 04:43:39;;;;;;;;;;;;;;;;;;7367813;19;20311;-62
2023/07/13 04:46:09;;;;;;;;;;;;;;;;;;7367172;19;19936;-62
2023/07/13 04:48:34;;;;;;;;;;;;;;;;;;7385835;19;19926;-63
2023/07/13 04:51:01;;;;;;;;;;;;;;;;;;7365810;19;19927;-62
2023/07/13 04:53:26;;;;;;;;;;;;;;;;;;7366210;19;19937;-61
2023/07/13 04:55:52;;;;;;;;;;;;;;;;;;7366224;19;20448;-61
2023/07/13 04:58:17;;;;;;;;;;;;;;;;;;7365103;19;19915;-61
2023/07/13 05:00:43;;;;;;;;;;;;;;;;;;7388359;19;19958;-61
2023/07/13 05:03:08;;;;;;;;;;;;;;;;;;7366231;19;19945;-61
2023/07/13 05:05:33;;;;;;;;;;;;;;;;;;7365960;19;19929;-61
2023/07/13 05:07:59;;;;;;;;;;;;;;;;;;7368288;19;19921;-62
2023/07/13 05:10:24;;;;;;;;;;;;;;;;;;7367462;19;19923;-62
2023/07/13 05:12:50;;;;;;;;;;;;;;;;;;7367571;19;19930;-62
2023/07/13 05:15:15;;;;;;;;;;;;;;;;;;7389611;19;19931;-62
2023/07/13 05:17:40;;;;;;;;;;;;;;;;;;7368625;19;19951;-62
2023/07/13 05:20:06;;;;;;;;;;;;;;;;;;7365679;19;20318;-62
2023/07/13 05:22:32;;;;;;;;;;;;;;;;;;7365973;19;20010;-62
2023/07/13 05:24:57;;;;;;;;;;;;;;;;;;7367525;19;20031;-61
2023/07/13 05:27:23;;;;;;;;;;;;;;;;;;7388310;19;19926;-62
2023/07/13 05:29:48;;;;;;;;;;;;;;;;;;7365016;19;19947;-62
2023/07/13 05:32:13;;;;;;;;;;;;;;;;;;7364895;19;19923;-62
2023/07/13 05:34:39;;;;;;;;;;;;;;;;;;7367050;19;19914;-62
2023/07/13 05:37:04;;;;;;;;;;;;;;;;;;7366696;19;19975;-62
2023/07/13 05:39:29;;;;;;;;;;;;;;;;;;7388980;19;19958;-61
2023/07/13 05:41:54;;;;;;;;;;;;;;;;;;7357338;19;20010;-62
2023/07/13 05:44:20;;;;;;;;;;;;;;;;;;7366250;19;19919;-62
2023/07/13 05:46:45;;;;;;;;;;;;;;;;;;7365730;19;19927;-62
2023/07/13 05:49:10;;;;;;;;;;;;;;;;;;7367021;19;19926;-62
2023/07/13 05:51:36;;;;;;;;;;;;;;;;;;7385973;19;19945;-60
2023/07/13 05:54:01;;;;;;;;;;;;;;;;;;7363765;19;19935;-69
2023/07/13 05:56:26;;;;;;;;;;;;;;;;;;7365798;19;19919;-69
2023/07/13 05:58:51;;;;;;;;;;;;;;;;;;7366530;19;19926;-69
2023/07/13 06:01:17;;;;;;;;;;;;;;;;;;7367197;19;19915;-63
2023/07/13 06:03:43;;;;;;;;;;;;;;;;;;7392148;19;19919;-64
2023/07/13 06:06:09;;;;;;;;;;;;;;;;;;7369072;19;19987;-64
2023/07/13 06:08:34;;;;;;;;;;;;;;;;;;7364509;19;20021;-65
2023/07/13 06:11:06;;;;;;;;;;;;;;;;;;7366601;19;19931;-65
2023/07/13 06:13:31;;;;;;;;;;;;;;;;;;7365764;19;19916;-64
2023/07/13 06:15:57;;;;;;;;;;;;;;;;;;7368522;19;19936;-64
2023/07/13 06:18:22;;;;;;;;;;;;;;;;;;7392950;19;19922;-64
2023/07/13 06:20:47;;;;;;;;;;;;;;;;;;7367388;19;20481;-64
2023/07/13 06:23:12;;;;;;;;;;;;;;;;;;7367970;19;19922;-64
2023/07/13 06:25:38;;;;;;;;;;;;;;;;;;7364433;19;19922;-63
2023/07/13 06:28:03;;;;;;;;;;;;;;;;;;7362827;19;19915;-63
2023/07/13 06:30:28;;;;;;;;;;;;;;;;;;7386205;19;19919;-72
2023/07/13 06:32:53;;;;;;;;;;;;;;;;;;7367859;19;19961;-72
2023/07/13 06:35:19;;;;;;;;;;;;;;;;;;7370450;19;19923;-72
2023/07/13 06:37:44;;;;;;;;;;;;;;;;;;7369866;19;20311;-72
2023/07/13 06:40:09;;;;;;;;;;;;;;;;;;7368855;19;19919;-72
2023/07/13 06:42:35;;;;;;;;;;;;;;;;;;7391638;19;19948;-72
2023/07/13 06:45:00;;;;;;;;;;;;;;;;;;7370496;19;20349;-72
2023/07/13 06:47:25;;;;;;;;;;;;;;;;;;7369144;19;19944;-72
2023/07/13 06:49:50;;;;;;;;;;;;;;;;;;7365181;19;19919;-72
2023/07/13 06:52:15;;;;;;;;;;;;;;;;;;7374017;19;20553;-72
2023/07/13 06:54:41;;;;;;;;;;;;;;;;;;7392667;19;20599;-73
2023/07/13 06:57:07;;;;;;;;;;;;;;;;;;7370125;19;20589;-72
2023/07/13 06:59:32;;;;;;;;;;;;;;;;;;7372397;19;19961;-72
2023/07/13 07:01:57;;;;;;;;;;;;;;;;;;7371625;19;19919;-72
2023/07/13 07:04:22;;;;;;;;;;;;;;;;;;7371894;19;19922;-72
2023/07/13 07:06:47;;;;;;;;;;;;;;;;;;7367642;19;19918;-72
2023/07/13 07:09:13;;;;;;;;;;;;;;;;;;7390618;19;19918;-72
2023/07/13 07:11:38;;;;;;;;;;;;;;;;;;7368189;19;19918;-72
2023/07/13 07:14:04;;;;;;;;;;;;;;;;;;7369625;19;20008;-74
2023/07/13 07:16:29;;;;;;;;;;;;;;;;;;7369819;19;19914;-72
2023/07/13 07:18:55;;;;;;;;;;;;;;;;;;7368573;19;19923;-72
2023/07/13 07:21:22;;;;;;;;;;;;;;;;;;7389974;19;19911;-73
2023/07/13 07:23:47;;;;;;;;;;;;;;;;;;7371435;19;19922;-73
2023/07/13 07:26:13;;;;;;;;;;;;;;;;;;7371835;19;19985;-72
2023/07/13 07:28:38;;;;;;;;;;;;;;;;;;7370996;19;19922;-72
2023/07/13 07:31:03;;;;;;;;;;;;;;;;;;7371282;19;19926;-72
2023/07/13 07:33:29;;;;;;;;;;;;;;;;;;7393880;19;19915;-72
2023/07/13 07:35:54;;;;;;;;;;;;;;;;;;7370264;19;19955;-72
2023/07/13 07:38:19;;;;;;;;;;;;;;;;;;7371847;19;19922;-72
2023/07/13 07:40:44;;;;;;;;;;;;;;;;;;7383391;19;19923;-71
2023/07/13 07:43:10;;;;;;;;;;;;;;;;;;7390535;19;19939;-71
2023/07/13 07:45:37;;;;;;;;;;;;;;;;;;7393776;19;19922;-72
2023/07/13 07:48:03;;;;;;;;;;;;;;;;;;7366884;19;19911;-72
2023/07/13 07:50:28;;;;;;;;;;;;;;;;;;7370927;19;19919;-72
2023/07/13 07:52:55;;;;;;;;;;;;;;;;;;7370932;19;19915;-71
2023/07/13 07:55:21;;;;;;;;;;;;;;;;;;7370315;19;19927;-72
2023/07/13 07:57:46;;;;;;;;;;;;;;;;;;7377452;19;20317;-71
2023/07/13 08:00:11;;;;;;;;;;;;;;;;;;7385943;19;20290;-72
2023/07/13 08:02:37;;;;;;;;;;;;;;;;;;7370187;19;20255;-72
2023/07/13 08:05:02;;;;;;;;;;;;;;;;;;7371088;19;20330;-71
2023/07/13 08:07:30;;;;;;;;;;;;;;;;;;7369949;19;20406;-71
2023/07/13 08:09:55;;;;;;;;;;;;;;;;;;7369499;19;20307;-72
2023/07/13 08:12:20;;;;;;;;;;;;;;;;;;7391294;19;19934;-73
2023/07/13 08:14:49;;;;;;;;;;;;;;;;;;7369896;19;19935;-72
2023/07/13 08:17:14;;;;;;;;;;;;;;;;;;7367781;19;19931;-73
2023/07/13 08:19:39;;;;;;;;;;;;;;;;;;7370942;19;20341;-73
2023/07/13 08:22:04;;;;;;;;;;;;;;;;;;7368787;19;19924;-72
2023/07/13 08:24:30;;;;;;;;;;;;;;;;;;7392530;19;20413;-72
2023/07/13 08:26:55;;;;;;;;;;;;;;;;;;7370919;19;20249;-72
2023/07/13 08:29:20;;;;;;;;;;;;;;;;;;7375341;19;20324;-72
2023/07/13 08:31:45;;;;;;;;;;;;;;;;;;7371920;19;19915;-72
2023/07/13 08:34:11;;;;;;;;;;;;;;;;;;7374418;19;19927;-71
2023/07/13 08:36:36;;;;;;;;;;;;;;;;;;7394160;19;19918;-72
2023/07/13 08:39:01;;;;;;;;;;;;;;;;;;7369631;19;19918;-73
2023/07/13 08:41:26;;;;;;;;;;;;;;;;;;7367763;19;19923;-73
2023/07/13 08:43:55;;;;;;;;;;;;;;;;;;7369131;19;19926;-72
2023/07/13 08:46:25;;;;;;;;;;;;;;;;;;7369149;19;20305;-72
2023/07/13 08:48:57;;;;;;;;;;;;;;;;;;7366477;19;19942;-73
2023/07/13 08:51:35;;;;;;;;;;;;;;;;;;7390441;19;20355;-72
2023/07/13 08:54:02;;;;;;;;;;;;;;;;;;7366658;19;20378;-72
2023/07/13 08:56:29;;;;;;;;;;;;;;;;;;7368317;19;19930;-72
2023/07/13 08:58:58;;;;;;;;;;;;;;;;;;7369284;19;19922;-72
2023/07/13 09:01:42;;;;;;;;;;;;;;;;;;7368739;19;19941;-72
2023/07/13 09:04:13;;;;;;;;;;;;;;;;;;7369629;19;20334;-72
2023/07/13 09:06:53;;;;;;;;;;;;;;;;;;7388746;19;19975;-72
2023/07/13 09:09:22;;;;;;;;;;;;;;;;;;7368570;19;19915;-72
2023/07/13 09:11:55;;;;;;;;;;;;;;;;;;7367610;19;20336;-72
2023/07/13 09:14:23;;;;;;;;;;;;;;;;;;7369525;19;20346;-72
2023/07/13 09:16:50;;;;;;;;;;;;;;;;;;7370820;19;19933;-72
2023/07/13 09:19:20;;;;;;;;;;;;;;;;;;7370881;19;19919;-72
2023/07/13 09:21:45;;;;;;;;;;;;;;;;;;7396471;19;19942;-72
2023/07/13 09:24:29;;;;;;;;;;;;;;;;;;7383530;19;19930;-73
2023/07/13 09:26:55;;;;;;;;;;;;;;;;;;7368070;19;19923;-72
2023/07/13 09:29:23;;;;;;;;;;;;;;;;;;7369106;19;19934;-72
2023/07/13 09:31:54;;;;;;;;;;;;;;;;;;7367696;19;19923;-73
2023/07/13 09:34:19;;;;;;;;;;;;;;;;;;7368301;19;19919;-73
2023/07/13 09:36:44;;;;;;;;;;;;;;;;;;7388926;19;19919;-73
2023/07/13 09:39:12;;;;;;;;;;;;;;;;;;7366475;19;20011;-73
2023/07/13 09:41:43;;;;;;;;;;;;;;;;;;7366524;19;19920;-73
2023/07/13 09:44:16;;;;;;;;;;;;;;;;;;7368254;19;19973;-72
2023/07/13 09:46:45;;;;;;;;;;;;;;;;;;7367116;19;20397;-72
2023/07/13 09:49:11;;;;;;;;;;;;;;;;;;7366905;19;19918;-74
2023/07/13 09:51:37;;;;;;;;;;;;;;;;;;7388003;19;19954;-73
2023/07/13 09:54:03;;;;;;;;;;;;;;;;;;7365943;19;19974;-73
2023/07/13 09:56:32;;;;;;;;;;;;;;;;;;7366940;19;20327;-73
2023/07/13 09:58:58;;;;;;;;;;;;;;;;;;7367743;19;19919;-72
2023/07/13 10:01:40;;;;;;;;;;;;;;;;;;7366277;19;20264;-72
2023/07/13 10:04:15;;;;;;;;;;;;;;;;;;7366533;19;20003;-72
2023/07/13 10:06:42;;;;;;;;;;;;;;;;;;7385989;19;20519;-72
2023/07/13 10:09:08;;;;;;;;;;;;;;;;;;7364941;19;19926;-72
2023/07/13 10:11:34;;;;;;;;;;;;;;;;;;7365261;19;19923;-71
2023/07/13 10:14:02;;;;;;;;;;;;;;;;;;7367500;19;19936;-71
2023/07/13 10:16:32;;;;;;;;;;;;;;;;;;7366767;19;20289;-71
2023/07/13 10:19:01;;;;;;;;;;;;;;;;;;7366958;19;19944;-70
2023/07/13 10:21:28;;;;;;;;;;;;;;;;;;7386958;19;19926;-71
2023/07/13 10:24:00;;;;;;;;;;;;;;;;;;7366793;19;19919;-72
2023/07/13 10:26:29;;;;;;;;;;;;;;;;;;7368474;19;19923;-71
2023/07/13 10:28:56;;;;;;;;;;;;;;;;;;7371500;19;19932;-71
2023/07/13 10:31:22;;;;;;;;;;;;;;;;;;7370058;19;19922;-71
2023/07/13 10:33:47;;;;;;;;;;;;;;;;;;7367656;19;19930;-71
2023/07/13 10:36:12;;;;;;;;;;;;;;;;;;7389087;19;20322;-71
2023/07/13 10:38:38;;;;;;;;;;;;;;;;;;7366049;19;19911;-72
2023/07/13 10:41:05;;;;;;;;;;;;;;;;;;7366124;19;20521;-71
2023/07/13 10:43:36;;;;;;;;;;;;;;;;;;7366366;19;19919;-71
2023/07/13 10:46:03;;;;;;;;;;;;;;;;;;7365888;19;19910;-71
2023/07/13 10:48:29;;;;;;;;;;;;;;;;;;7386079;19;19917;-71
2023/07/13 10:50:55;;;;;;;;;;;;;;;;;;7365373;19;19934;-72
2023/07/13 10:53:20;;;;;;;;;;;;;;;;;;7366944;19;19936;-72
2023/07/13 10:55:48;;;;;;;;;;;;;;;;;;7365488;19;19922;-72
2023/07/13 10:58:18;;;;;;;;;;;;;;;;;;7365184;19;19919;-72
2023/07/13 11:00:53;;;;;;;;;;;;;;;;;;7389663;19;19923;-71
2023/07/13 11:03:20;;;;;;;;;;;;;;;;;;7377062;19;19918;-71
2023/07/13 11:05:48;;;;;;;;;;;;;;;;;;7371483;19;19915;-71
2023/07/13 11:08:16;;;;;;;;;;;;;;;;;;7367137;19;20330;-71
2023/07/13 11:10:47;;;;;;;;;;;;;;;;;;7365388;19;20757;-72
2023/07/13 11:13:32;;;;;;;;;;;;;;;;;;7364692;19;20422;-71
2023/07/13 11:15:57;;;;;;;;;;;;;;;;;;7364703;19;19948;-71
2023/07/13 11:18:24;;;;;;;;;;;;;;;;;;7386380;19;19918;-71
2023/07/13 11:20:50;;;;;;;;;;;;;;;;;;7370834;19;19935;-71
2023/07/13 11:23:16;;;;;;;;;;;;;;;;;;7372774;19;19923;-71
2023/07/13 11:25:42;;;;;;;;;;;;;;;;;;7371980;19;20296;-71
2023/07/13 11:28:10;;;;;;;;;;;;;;;;;;7371165;19;19927;-72
2023/07/13 11:30:35;;;;;;;;;;;;;;;;;;7389943;19;19926;-72
2023/07/13 11:33:08;;;;;;;;;;;;;;;;;;7370685;19;19931;-70
2023/07/13 11:35:35;;;;;;;;;;;;;;;;;;7371287;19;19923;-71
2023/07/13 11:38:02;;;;;;;;;;;;;;;;;;7371275;19;19948;-71
2023/07/13 11:40:29;;;;;;;;;;;;;;;;;;7371405;19;20309;-70
2023/07/13 11:43:01;;;;;;;;;;;;;;;;;;7370063;19;20350;-71
2023/07/13 11:45:27;;;;;;;;;;;;;;;;;;7393297;19;19925;-72
2023/07/13 11:47:53;;;;;;;;;;;;;;;;;;7369458;19;19994;-71
2023/07/13 11:50:20;;;;;;;;;;;;;;;;;;7370457;19;19973;-71
2023/07/13 11:52:45;;;;;;;;;;;;;;;;;;7373935;19;19919;-71
2023/07/13 11:55:14;;;;;;;;;;;;;;;;;;7370973;19;19921;-71
2023/07/13 11:57:43;;;;;;;;;;;;;;;;;;7391993;19;19919;-71
2023/07/13 12:00:16;;;;;;;;;;;;;;;;;;7370442;19;19922;-71
2023/07/13 12:02:47;;;;;;;;;;;;;;;;;;7368350;19;19915;-71
2023/07/13 12:05:14;;;;;;;;;;;;;;;;;;7371446;19;19925;-71
2023/07/13 12:07:39;;;;;;;;;;;;;;;;;;7370647;19;19922;-71
2023/07/13 12:10:08;;;;;;;;;;;;;;;;;;7370499;19;19999;-71
2023/07/13 12:12:33;;;;;;;;;;;;;;;;;;7392772;19;19911;-71
2023/07/13 12:14:58;;;;;;;;;;;;;;;;;;7372402;19;19915;-72
2023/07/13 12:17:24;;;;;;;;;;;;;;;;;;7370798;19;20564;-72
2023/07/13 12:19:52;;;;;;;;;;;;;;;;;;7371929;19;20324;-72
2023/07/13 12:22:19;;;;;;;;;;;;;;;;;;7370937;19;19923;-72
2023/07/13 12:24:45;;;;;;;;;;;;;;;;;;7393922;19;19941;-72
2023/07/13 12:27:17;;;;;;;;;;;;;;;;;;7371677;19;20011;-72
2023/07/13 12:29:49;;;;;;;;;;;;;;;;;;7369681;19;19923;-72
2023/07/13 12:32:17;;;;;;;;;;;;;;;;;;7371191;19;19927;-72
2023/07/13 12:34:55;;;;;;;;;;;;;;;;;;7367010;19;19910;-72
2023/07/13 12:37:21;;;;;;;;;;;;;;;;;;7372189;19;20292;-72
2023/07/13 12:39:48;;;;;;;;;;;;;;;;;;7375843;19;19993;-71
2023/07/13 12:42:28;;;;;;;;;;;;;;;;;;7394651;19;19914;-62
2023/07/13 12:44:56;;;;;;;;;;;;;;;;;;7373730;19;19915;-61
2023/07/13 12:47:24;;;;;;;;;;;;;;;;;;7368912;19;21191;-61
2023/07/13 12:49:52;;;;;;;;;;;;;;;;;;7369954;19;19919;-61
2023/07/13 12:52:21;;;;;;;;;;;;;;;;;;7371453;19;19983;-61
2023/07/13 12:54:53;;;;;;;;;;;;;;;;;;7376591;19;19927;-61
2023/07/13 12:57:18;;;;;;;;;;;;;;;;;;7389700;19;19914;-59
2023/07/13 12:59:43;;;;;;;;;;;;;;;;;;7367798;19;20058;-58
2023/07/13 13:02:23;;;;;;;;;;;;;;;;;;7370242;19;19919;-61
2023/07/13 13:04:48;;;;;;;;;;;;;;;;;;7368945;19;19915;-60
2023/07/13 13:07:13;;;;;;;;;;;;;;;;;;7370104;19;19918;-59
2023/07/13 13:09:38;;;;;;;;;;;;;;;;;;7388693;19;19919;-57
2023/07/13 13:12:05;;;;;;;;;;;;;;;;;;7366630;19;19915;-59
2023/07/13 13:14:30;;;;;;;;;;;;;;;;;;7364415;19;20340;-59
2023/07/13 13:16:56;;;;;;;;;;;;;;;;;;7368295;19;19926;-60
2023/07/13 13:19:26;;;;;;;;;;;;;;;;;;7367988;19;19915;-61
2023/07/13 13:21:53;;;;;;;;;;;;;;;;;;7364935;19;19919;-59
2023/07/13 13:24:20;;;;;;;;;;;;;;;;;;7390185;19;20432;-60
2023/07/13 13:26:45;;;;;;;;;;;;;;;;;;7366148;19;19918;-60
2023/07/13 13:29:15;;;;;;;;;;;;;;;;;;7366900;19;20367;-60
2023/07/13 13:31:41;;;;;;;;;;;;;;;;;;7363214;19;20403;-60
2023/07/13 13:34:10;;;;;;;;;;;;;;;;;;7366500;19;19935;-61
2023/07/13 13:36:35;;;;;;;;;;;;;;;;;;7387413;19;19918;-61
2023/07/13 13:39:01;;;;;;;;;;;;;;;;;;7369264;19;20304;-58
2023/07/13 13:41:27;;;;;;;;;;;;;;;;;;7362654;19;19915;-58
2023/07/13 13:43:52;;;;;;;;;;;;;;;;;;7366617;19;19950;-60
2023/07/13 13:46:18;;;;;;;;;;;;;;;;;;7370547;19;19919;-69
2023/07/13 13:48:44;;;;;;;;;;;;;;;;;;7388166;19;19915;-69
2023/07/13 13:51:14;;;;;;;;;;;;;;;;;;7363647;19;20439;-69
2023/07/13 13:53:39;;;;;;;;;;;;;;;;;;7361421;19;20416;-69
2023/07/13 13:56:05;;;;;;;;;;;;;;;;;;7363896;19;19923;-69
2023/07/13 13:58:30;;;;;;;;;;;;;;;;;;7364497;19;19940;-68
2023/07/13 14:00:56;;;;;;;;;;;;;;;;;;7366513;19;19915;-68
2023/07/13 14:03:21;;;;;;;;;;;;;;;;;;7387782;19;20394;-69
2023/07/13 14:05:48;;;;;;;;;;;;;;;;;;7366041;19;19935;-69
2023/07/13 14:08:18;;;;;;;;;;;;;;;;;;7365137;19;19919;-70
2023/07/13 14:10:44;;;;;;;;;;;;;;;;;;7365803;19;19918;-69
2023/07/13 14:13:21;;;;;;;;;;;;;;;;;;7367769;19;19923;-69
2023/07/13 14:15:47;;;;;;;;;;;;;;;;;;7373419;19;19922;-69
2023/07/13 14:18:17;;;;;;;;;;;;;;;;;;7386718;19;19911;-69
2023/07/13 14:20:42;;;;;;;;;;;;;;;;;;7364633;19;19927;-70
2023/07/13 14:23:08;;;;;;;;;;;;;;;;;;7366646;19;19953;-70
2023/07/13 14:25:33;;;;;;;;;;;;;;;;;;7379378;19;19922;-69
2023/07/13 14:27:58;;;;;;;;;;;;;;;;;;7372498;19;19915;-70
2023/07/13 14:30:24;;;;;;;;;;;;;;;;;;7389303;19;19919;-70
2023/07/13 14:32:49;;;;;;;;;;;;;;;;;;7366480;19;19918;-70
2023/07/13 14:35:15;;;;;;;;;;;;;;;;;;7366219;19;19930;-70
2023/07/13 14:37:41;;;;;;;;;;;;;;;;;;7365378;19;19932;-70
2023/07/13 14:40:16;;;;;;;;;;;;;;;;;;7367926;19;19939;-70
2023/07/13 14:42:41;;;;;;;;;;;;;;;;;;7388919;19;19928;-69
2023/07/13 14:45:14;;;;;;;;;;;;;;;;;;7367549;19;19915;-69
2023/07/13 14:47:39;;;;;;;;;;;;;;;;;;7362678;19;19915;-70
2023/07/13 14:50:05;;;;;;;;;;;;;;;;;;7362185;19;19971;-69
2023/07/13 14:52:30;;;;;;;;;;;;;;;;;;7365015;19;19919;-69
2023/07/13 14:54:55;;;;;;;;;;;;;;;;;;7370157;19;20593;-68
2023/07/13 14:57:21;;;;;;;;;;;;;;;;;;7394042;19;19919;-69
2023/07/13 14:59:46;;;;;;;;;;;;;;;;;;7372129;19;19926;-68
2023/07/13 15:02:16;;;;;;;;;;;;;;;;;;7372276;19;20460;-68
2023/07/13 15:04:41;;;;;;;;;;;;;;;;;;7372712;19;19923;-69
2023/07/13 15:07:09;;;;;;;;;;;;;;;;;;7372814;19;20334;-69
2023/07/13 15:09:34;;;;;;;;;;;;;;;;;;7396443;19;19914;-69
2023/07/13 15:11:59;;;;;;;;;;;;;;;;;;7373120;19;20339;-69
2023/07/13 15:14:25;;;;;;;;;;;;;;;;;;7373445;19;20296;-69
2023/07/13 15:16:53;;;;;;;;;;;;;;;;;;7372968;19;20346;-69
2023/07/13 15:19:18;;;;;;;;;;;;;;;;;;7371236;19;19960;-69
2023/07/13 15:21:44;;;;;;;;;;;;;;;;;;7392944;19;20409;-69
2023/07/13 15:24:10;;;;;;;;;;;;;;;;;;7373109;19;19918;-70
2023/07/13 15:26:35;;;;;;;;;;;;;;;;;;7372405;19;20009;-70
2023/07/13 15:29:01;;;;;;;;;;;;;;;;;;7371830;19;19948;-69
2023/07/13 15:31:27;;;;;;;;;;;;;;;;;;7370201;19;19923;-69
2023/07/13 15:33:54;;;;;;;;;;;;;;;;;;7372074;19;20418;-69
2023/07/13 15:36:20;;;;;;;;;;;;;;;;;;7394116;19;19957;-69
2023/07/13 15:38:47;;;;;;;;;;;;;;;;;;7372764;19;20430;-69
2023/07/13 15:41:18;;;;;;;;;;;;;;;;;;7371303;19;20397;-69
2023/07/13 15:43:43;;;;;;;;;;;;;;;;;;7373775;19;19943;-69
2023/07/13 15:46:09;;;;;;;;;;;;;;;;;;7372089;19;20425;-70
2023/07/13 15:48:34;;;;;;;;;;;;;;;;;;7389842;19;19911;-70
2023/07/13 15:51:03;;;;;;;;;;;;;;;;;;7369757;19;19918;-69
2023/07/13 15:53:31;;;;;;;;;;;;;;;;;;7370440;19;19915;-68
2023/07/13 15:55:57;;;;;;;;;;;;;;;;;;7370000;19;19946;-69
2023/07/13 15:58:23;;;;;;;;;;;;;;;;;;7369709;19;19918;-70
2023/07/13 16:00:51;;;;;;;;;;;;;;;;;;7369888;19;19926;-68
2023/07/13 16:03:20;;;;;;;;;;;;;;;;;;7390096;19;19923;-70
2023/07/13 16:05:47;;;;;;;;;;;;;;;;;;7368855;19;19923;-69
2023/07/13 16:08:27;;;;;;;;;;;;;;;;;;7370663;19;19986;-69
2023/07/13 16:10:52;;;;;;;;;;;;;;;;;;7371187;19;19922;-69
2023/07/13 16:13:20;;;;;;;;;;;;;;;;;;7371954;19;20265;-69
2023/07/13 16:15:45;;;;;;;;;;;;;;;;;;7387518;19;20350;-69
2023/07/13 16:18:20;;;;;;;;;;;;;;;;;;7378439;19;19919;-69
2023/07/13 16:20:47;;;;;;;;;;;;;;;;;;7369471;19;19922;-69
2023/07/13 16:23:13;;;;;;;;;;;;;;;;;;7370655;19;19931;-69
2023/07/13 16:25:39;;;;;;;;;;;;;;;;;;7371269;19;19919;-69
2023/07/13 16:28:05;;;;;;;;;;;;;;;;;;7370027;19;19919;-69
2023/07/13 16:30:31;;;;;;;;;;;;;;;;;;7390372;19;19925;-70
2023/07/13 16:32:57;;;;;;;;;;;;;;;;;;7372419;19;19939;-69
2023/07/13 16:35:26;;;;;;;;;;;;;;;;;;7375656;19;20317;-69
2023/07/13 16:37:52;;;;;;;;;;;;;;;;;;7371401;19;19921;-69
2023/07/13 16:40:27;;;;;;;;;;;;;;;;;;7368900;19;19931;-69
2023/07/13 16:42:53;;;;;;;;;;;;;;;;;;7368770;19;19918;-69